地図

経路データ

SID SEASON NUMBER BASIN SUBBASIN NAME ISO_TIME NATURE LAT LON WMO_WIND WMO_PRES WMO_AGENCY TRACK_TYPE DIST2LAND LANDFALL IFLAG USA_AGENCY USA_ATCF_ID USA_LAT USA_LON USA_RECORD USA_STATUS USA_WIND USA_PRES USA_SSHS USA_R34_NE USA_R34_SE USA_R34_SW USA_R34_NW USA_R50_NE USA_R50_SE USA_R50_SW USA_R50_NW USA_R64_NE USA_R64_SE USA_R64_SW USA_R64_NW USA_POCI USA_ROCI USA_RMW USA_EYE TOKYO_LAT TOKYO_LON TOKYO_GRADE TOKYO_WIND TOKYO_PRES TOKYO_R50_DIR TOKYO_R50_LONG TOKYO_R50_SHORT TOKYO_R30_DIR TOKYO_R30_LONG TOKYO_R30_SHORT TOKYO_LAND CMA_LAT CMA_LON CMA_CAT CMA_WIND CMA_PRES HKO_LAT HKO_LON HKO_CAT HKO_WIND HKO_PRES NEWDELHI_LAT NEWDELHI_LON NEWDELHI_GRADE NEWDELHI_WIND NEWDELHI_PRES NEWDELHI_CI NEWDELHI_DP NEWDELHI_POCI REUNION_LAT REUNION_LON REUNION_TYPE REUNION_WIND REUNION_PRES REUNION_TNUM REUNION_CI REUNION_RMW REUNION_R34_NE REUNION_R34_SE REUNION_R34_SW REUNION_R34_NW REUNION_R50_NE REUNION_R50_SE REUNION_R50_SW REUNION_R50_NW REUNION_R64_NE REUNION_R64_SE REUNION_R64_SW REUNION_R64_NW BOM_LAT BOM_LON BOM_TYPE BOM_WIND BOM_PRES BOM_TNUM BOM_CI BOM_RMW BOM_R34_NE BOM_R34_SE BOM_R34_SW BOM_R34_NW BOM_R50_NE BOM_R50_SE BOM_R50_SW BOM_R50_NW BOM_R64_NE BOM_R64_SE BOM_R64_SW BOM_R64_NW BOM_ROCI BOM_POCI BOM_EYE BOM_POS_METHOD BOM_PRES_METHOD NADI_LAT NADI_LON NADI_CAT NADI_WIND NADI_PRES WELLINGTON_LAT WELLINGTON_LON WELLINGTON_WIND WELLINGTON_PRES DS824_LAT DS824_LON DS824_STAGE DS824_WIND DS824_PRES TD9636_LAT TD9636_LON TD9636_STAGE TD9636_WIND TD9636_PRES TD9635_LAT TD9635_LON TD9635_WIND TD9635_PRES TD9635_ROCI NEUMANN_LAT NEUMANN_LON NEUMANN_CLASS NEUMANN_WIND NEUMANN_PRES MLC_LAT MLC_LON MLC_CLASS MLC_WIND MLC_PRES USA_GUST BOM_GUST BOM_GUST_PER REUNION_GUST REUNION_GUST_PER USA_SEAHGT USA_SEARAD_NE USA_SEARAD_SE USA_SEARAD_SW USA_SEARAD_NW STORM_SPEED STORM_DIR
1891309N27301 1891 56 NA NA NOT_NAMED 1891-11-04 12:00:00 TS 26.5000 -59.0000 main 1130 1130 _____________O -1 26.5000 -59.0000 TS 35 23 29
1891309N27301 1891 56 NA NA NOT_NAMED 1891-11-04 15:00:00 TS 27.5007 -58.3923 main 1255 1255 _____________P -1 27.5007 -58.3923 TS 37 23 28
1891309N27301 1891 56 NA NA NOT_NAMED 1891-11-04 18:00:00 TS 28.5000 -57.8000 main 1379 1379 _____________O -1 28.5000 -57.8000 TS 40 22 27
1891309N27301 1891 56 NA NA NOT_NAMED 1891-11-04 21:00:00 TS 29.4997 -57.2412 main 1504 1504 _____________P -1 29.4997 -57.2412 TS 45 22 26
1891309N27301 1891 56 NA NA NOT_NAMED 1891-11-05 00:00:00 TS 30.5000 -56.7000 main 1622 1565 _____________O -1 30.5000 -56.7000 TS 50 22 25
1891309N27301 1891 56 NA NA NOT_NAMED 1891-11-05 03:00:00 TS 31.4998 -56.1488 main 1560 1491 _____________P -1 31.4998 -56.1488 TS 55 22 25
1891309N27301 1891 56 NA NA NOT_NAMED 1891-11-05 06:00:00 TS 32.5000 -55.6000 main 1487 1409 _____________O -1 32.5000 -55.6000 TS 60 21 25
1891309N27301 1891 56 NA NA NOT_NAMED 1891-11-05 09:00:00 TS 33.4242 -55.0899 main 1409 1322 _____________P -1 33.4242 -55.0899 TS 62 22 25
1891309N27301 1891 56 NA NA NOT_NAMED 1891-11-05 12:00:00 TS 34.5000 -54.5000 main 1315 1201 _____________O -1 34.5000 -54.5000 HU 65 28 25
1891309N27301 1891 56 NA NA NOT_NAMED 1891-11-05 15:00:00 TS 35.9256 -53.6888 main 1190 1023 _____________P -1 35.9256 -53.6888 HU 65 33 25
1891309N27301 1891 56 NA NA NOT_NAMED 1891-11-05 18:00:00 TS 37.5000 -52.8000 main 1012 861 _____________O -1 37.5000 -52.8000 HU 65 34 24
1891309N27301 1891 56 NA NA NOT_NAMED 1891-11-05 21:00:00 TS 38.9993 -51.9887 main 850 707 _____________P -1 38.9993 -51.9887 HU 65 33 23
1891309N27301 1891 56 NA NA NOT_NAMED 1891-11-06 00:00:00 TS 40.5000 -51.2000 main 696 567 _____________O -1 40.5000 -51.2000 HU 65 32 22
1891309N27301 1891 56 NA NA NOT_NAMED 1891-11-06 03:00:00 TS 41.9994 -50.3963 main 557 453 _____________P -1 41.9994 -50.3963 HU 65 32 22
1891309N27301 1891 56 NA NA NOT_NAMED 1891-11-06 06:00:00 TS 43.5000 -49.6000 main 444 373 _____________O -1 43.5000 -49.6000 HU 65 33 19
1891309N27301 1891 56 NA NA NOT_NAMED 1891-11-06 09:00:00 TS 45.1169 -48.8866 main 367 356 _____________P -1 45.1169 -48.8866 HU 65 32 21
1891309N27301 1891 56 NA NA NOT_NAMED 1891-11-06 12:00:00 ET 46.5000 -48.0000 main 364 364 _____________O -1 46.5000 -48.0000 EX 65 26 35
1891309N27301 1891 56 NA NA NOT_NAMED 1891-11-06 15:00:00 ET 47.2837 -46.6731 main 442 442 _____________P -1 47.2837 -46.6731 EX 62 24 54
1891309N27301 1891 56 NA NA NOT_NAMED 1891-11-06 18:00:00 ET 47.9000 -45.2000 main 552 552 _____________O -1 47.9000 -45.2000 EX 60 24 51
1891309N27301 1891 56 NA NA NOT_NAMED 1891-11-06 21:00:00 ET 48.8330 -43.8490 main 664 664 _____________P -1 48.8330 -43.8490 EX 60 26 43
1891309N27301 1891 56 NA NA NOT_NAMED 1891-11-07 00:00:00 ET 49.8000 -42.5000 main 771 771 _____________O -1 49.8000 -42.5000 EX 60 25 45
1891309N27301 1891 56 NA NA NOT_NAMED 1891-11-07 03:00:00 ET 50.6213 -41.0942 main 884 884 _____________P -1 50.6213 -41.0942 EX 60 24 48
1891309N27301 1891 56 NA NA NOT_NAMED 1891-11-07 06:00:00 ET 51.4000 -39.7000 main 986 921 _____________O -1 51.4000 -39.7000 EX 60 23 47
1891309N27301 1891 56 NA NA NOT_NAMED 1891-11-07 09:00:00 ET 52.1952 -38.3479 main 923 866 _____________P -1 52.1952 -38.3479 EX 60 23 46
1891309N27301 1891 56 NA NA NOT_NAMED 1891-11-07 12:00:00 ET 53.0000 -37.0000 main 868 _____________O -1 53.0000 -37.0000 EX 60 23 45

IBTrACS Databaseについて

本データベースは、米国NOAAが公開する1842年以降の世界の熱帯低気圧のベストトラックデータアーカイブInternational Best Track Archive for Climate Stewardship (IBTrACS)を、ウェブで閲覧しやすい形式に変換したものです。

最終更新日:2021-10-25